Andrews, SC (29510)

10:25 PM EDT on March 27, 2015 (GMT -0400)
Mt. Pleasant Plantation | | Change Station
CLOSE
Current Station
Personal Weather Station
Location: Andrews, SC
Elevation: 62 ft
Nearby Weather Stations
Active Advisory: Freeze Watch

Elev 62 ft 33.50 °N, 79.46 °W | Updated 10 minutes ago

Overcast
Overcast
48.5 °F
Feels Like 48 °F
N
1.0
Wind Variable Wind from NNW
Gusts 3.0 mph

Today
High -- | Low -- °F
--% Chance of Precip.
Yesterday
High -- | Low -- °F
Precip. -- in
7:12 AM 7:34 PM
First Quarter, 58% visible
Pressure 29.82 in
Visibility 10.0 miles
Clouds Overcast 1400 ft
Windchill 48 °F
Dew Point 45 °F
Humidity 89%
Rainfall 0.56 in
Snow Depth Not available.
UV 0 out of 12
Pollen 5.90 out of 12
Air Quality Not available.
Flu Activity Not available.
METAR KGGE 280215Z AUTO 36010KT 10SM OVC014 08/08 A2982 RMK AO2

More Conditions Fewer Conditions

Pressure 29.82 in
Visibility 10.0 miles
Clouds Overcast 1400 ft
Windchill 48 °F
Dew Point 45 °F
Humidity 89%
Rainfall 0.56 in
Snow Depth Not available.
UV 0 out of 12
Pollen 5.90 out of 12
Air Quality Not available.
Flu Activity Not available.
METAR KGGE 280215Z AUTO 36010KT 10SM OVC014 08/08 A2982 RMK AO2

More Conditions Fewer Conditions

10-Day Weather Forecast

Almanac

Astronomy

Mar. 27, 2015 Rise Set
Actual Time
Civil Twilight
Nautical Twilight
Astronomical Twilight
Moon
Length of Visible Light
Length of Day
Tomorrow will be .
, % of the Moon is Illuminated

Today's Extremes

State Highs State Lows

Community

WunderPhotos

Upload Photos

1,808,915 photos uploaded!

WunderBlogs® & News

Nearby

Air Quality

  Air Quality AQ Index Pollutant
Not available.

Snow Depth

Station Depth Elevation

Earthquake Activity

City Distance Mag. Time & Date
Minimum magnitude displayed is 2.5.

Coastal Water Temperatures

Place Temperature

Stations

Nearby Weather Stations

Station Location Temp. Windchill Dew Point Humidity Wind Precip. Elev Updated Type
                   
Freeze Watch
Statement as of 8:11 PM EDT on March 27, 2015

... Freeze watch remains in effect from late Saturday night
through Sunday morning...

* temperatures... in the upper 20s to lower 30s.

* Timing... late Saturday night into early Sunday morning.

* Impacts... cold sensitive vegetation such as early crops... tree
buds... and outdoor plants... could be damaged or killed. Those
with agricultural and gardening interests should prepare for the
possibility of freezing temperatures and take precautions.

Precautionary/preparedness actions...

A freeze watch means sub-freezing temperatures are possible. These
conditions could kill crops and other sensitive vegetation. The
watch could be upgraded to a freeze warning.



8